Castlepoint, New Zealand
Current Conditions -  °F | °C
As of 1:30 PM on Tuesday 23 Dec 2014 (Local Time) from NZWN Reporting Station
Clear Clear  
Wind Chill: 64°   Ceiling: Unl
Heat Index: 64°   Visibility: 6mi
Dew Point: 59°   Wind: 14mph
Humidity: 83%   Direction: 220°SW
Pressure: 30.27"   Gusts: NA
Location:  40.9°S, 176.22°E
Report Text: NZWN 230130Z AUTO 22012KT 9999 NCD 18/15 Q1025 NOSIG
Loading
Personal Weather Stations






























Interactive Weather Map New forecast layout! Learn more

10-Day Weather Forecast

Advertisements
Track Severe Weather on mobile